WUK8380 EGGW-LEBL
Flight info
| Callsign | WUK8380 |
|---|---|
| Flight time | 1h 54m |
| Altitude | 33000 |
| Route | RODNI N27 ICTAM Q63 CPT N859 VAPID UN859 SOPIL DCT BALAN DCT EVPOK DCT NARAK DCT GAI DCT LOMRA DCT ROCAN DCT PUMAL |
| Aircraft | A21N/M-SDE1E2E3FGIJ1J4RWXY/LB1 |
Departure
| Time | 2026-05-01 08:15 |
|---|---|
| Airport | London Luton Airport (EGGW) |
Arrival
| Time | 2026-05-01 10:09 |
|---|---|
| Airport | Josep Tarradellas Barcelona-El Prat Airport (LEBL) |
| Time | Latitude | Longitude | Altitude | Speed | Heading |
|---|---|---|---|---|---|
| 2026-05-01 07:27 | 51.88159 | -0.37846 | 535 ft | 0 kts | 307° |
| 2026-05-01 08:01 | 51.88144 | -0.37814 | 533 ft | 2 kts | 307° |
| 2026-05-01 08:01 | 51.88138 | -0.37802 | 533 ft | 2 kts | 307° |
| 2026-05-01 08:01 | 51.88132 | -0.37779 | 533 ft | 2 kts | 269° |
| 2026-05-01 08:02 | 51.88139 | -0.37748 | 533 ft | 1 kts | 230° |
| 2026-05-01 08:02 | 51.88141 | -0.37744 | 533 ft | 0 kts | 233° |
| 2026-05-01 08:07 | 51.88138 | -0.37751 | 532 ft | 2 kts | 233° |
| 2026-05-01 08:07 | 51.88108 | -0.37809 | 533 ft | 4 kts | 223° |
| 2026-05-01 08:08 | 51.88077 | -0.37849 | 532 ft | 6 kts | 219° |
| 2026-05-01 08:08 | 51.87974 | -0.37978 | 533 ft | 11 kts | 215° |
| 2026-05-01 08:09 | 51.87822 | -0.37965 | 532 ft | 12 kts | 139° |
| 2026-05-01 08:09 | 51.87775 | -0.37851 | 532 ft | 12 kts | 116° |
| 2026-05-01 08:09 | 51.87738 | -0.37724 | 532 ft | 12 kts | 115° |
| 2026-05-01 08:10 | 51.87649 | -0.37481 | 532 ft | 12 kts | 150° |
| 2026-05-01 08:10 | 51.87499 | -0.37543 | 532 ft | 13 kts | 252° |
| 2026-05-01 08:11 | 51.87447 | -0.37836 | 532 ft | 13 kts | 254° |
| 2026-05-01 08:11 | 51.87394 | -0.38035 | 532 ft | 7 kts | 215° |
| 2026-05-01 08:12 | 51.87345 | -0.38077 | 532 ft | 2 kts | 207° |
| 2026-05-01 08:12 | 51.87326 | -0.38092 | 532 ft | 4 kts | 204° |
| 2026-05-01 08:12 | 51.87231 | -0.38149 | 532 ft | 10 kts | 247° |
| 2026-05-01 08:13 | 51.87207 | -0.38243 | 532 ft | 7 kts | 222° |
| 2026-05-01 08:13 | 51.87177 | -0.38291 | 532 ft | 4 kts | 249° |
| 2026-05-01 08:13 | 51.87200 | -0.38316 | 532 ft | 3 kts | 67° |
| 2026-05-01 08:14 | 51.87210 | -0.38260 | 532 ft | 11 kts | 74° |
| 2026-05-01 08:14 | 51.87287 | -0.37811 | 532 ft | 79 kts | 75° |
| 2026-05-01 08:14 | 51.87497 | -0.36593 | 533 ft | 144 kts | 74° |
| 2026-05-01 08:14 | 51.87812 | -0.34811 | 789 ft | 175 kts | 76° |
| 2026-05-01 08:15 | 51.88145 | -0.32903 | 1433 ft | 180 kts | 77° |
| 2026-05-01 08:15 | 51.88850 | -0.28980 | 2436 ft | 194 kts | 77° |
| 2026-05-01 08:15 | 51.89203 | -0.26803 | 2748 ft | 208 kts | 85° |
| 2026-05-01 08:16 | 51.88979 | -0.24463 | 3010 ft | 220 kts | 120° |
| 2026-05-01 08:16 | 51.87926 | -0.22611 | 3307 ft | 235 kts | 151° |
| 2026-05-01 08:16 | 51.86327 | -0.21976 | 3686 ft | 250 kts | 184° |
| 2026-05-01 08:16 | 51.84704 | -0.22955 | 3962 ft | 257 kts | 217° |
| 2026-05-01 08:17 | 51.83665 | -0.25304 | 3980 ft | 262 kts | 250° |
| 2026-05-01 08:17 | 51.83330 | -0.28226 | 3996 ft | 264 kts | 261° |
| 2026-05-01 08:17 | 51.83092 | -0.31149 | 3990 ft | 264 kts | 259° |
| 2026-05-01 08:17 | 51.82776 | -0.34082 | 3987 ft | 264 kts | 256° |
| 2026-05-01 08:18 | 51.82393 | -0.36979 | 3987 ft | 263 kts | 255° |
| 2026-05-01 08:18 | 51.81539 | -0.42719 | 3985 ft | 263 kts | 253° |
| 2026-05-01 08:19 | 51.80659 | -0.48483 | 4215 ft | 271 kts | 254° |
| 2026-05-01 08:19 | 51.80212 | -0.51433 | 4741 ft | 268 kts | 254° |
| 2026-05-01 08:19 | 51.79774 | -0.54328 | 4972 ft | 268 kts | 253° |
| 2026-05-01 08:19 | 51.79331 | -0.57239 | 4980 ft | 267 kts | 253° |
| 2026-05-01 08:20 | 51.78888 | -0.60137 | 4981 ft | 266 kts | 253° |
| 2026-05-01 08:20 | 51.78446 | -0.63029 | 4977 ft | 266 kts | 253° |
| 2026-05-01 08:20 | 51.78002 | -0.65922 | 4979 ft | 266 kts | 253° |
| 2026-05-01 08:20 | 51.77554 | -0.68833 | 4979 ft | 266 kts | 253° |
| 2026-05-01 08:21 | 51.77109 | -0.71724 | 4978 ft | 266 kts | 253° |
| 2026-05-01 08:21 | 51.76663 | -0.74611 | 4981 ft | 267 kts | 253° |
| 2026-05-01 08:21 | 51.76188 | -0.77510 | 4978 ft | 266 kts | 247° |
| 2026-05-01 08:21 | 51.75312 | -0.80097 | 4979 ft | 261 kts | 229° |
| 2026-05-01 08:22 | 51.74081 | -0.82232 | 4982 ft | 260 kts | 222° |
| 2026-05-01 08:22 | 51.72800 | -0.84266 | 4977 ft | 260 kts | 221° |
| 2026-05-01 08:22 | 51.71507 | -0.86315 | 4976 ft | 260 kts | 222° |
| 2026-05-01 08:22 | 51.70229 | -0.88339 | 4976 ft | 260 kts | 222° |
| 2026-05-01 08:23 | 51.68936 | -0.90400 | 5186 ft | 266 kts | 222° |
| 2026-05-01 08:23 | 51.67621 | -0.92512 | 5984 ft | 266 kts | 222° |
| 2026-05-01 08:23 | 51.66324 | -0.94597 | 6807 ft | 265 kts | 222° |
| 2026-05-01 08:23 | 51.65023 | -0.96686 | 7513 ft | 268 kts | 222° |
| 2026-05-01 08:24 | 51.63703 | -0.98800 | 8186 ft | 271 kts | 222° |
| 2026-05-01 08:24 | 51.62360 | -1.00949 | 8856 ft | 274 kts | 221° |
| 2026-05-01 08:24 | 51.61003 | -1.03119 | 9509 ft | 278 kts | 221° |
| 2026-05-01 08:24 | 51.59641 | -1.05295 | 10132 ft | 281 kts | 221° |
| 2026-05-01 08:25 | 51.58254 | -1.07507 | 10659 ft | 288 kts | 221° |
| 2026-05-01 08:25 | 51.56789 | -1.09836 | 10947 ft | 303 kts | 221° |
| 2026-05-01 08:25 | 51.55260 | -1.12268 | 11339 ft | 313 kts | 221° |
| 2026-05-01 08:25 | 51.53726 | -1.14714 | 11921 ft | 316 kts | 221° |
| 2026-05-01 08:26 | 51.52157 | -1.17211 | 12547 ft | 318 kts | 221° |
| 2026-05-01 08:26 | 51.50418 | -1.19302 | 13094 ft | 316 kts | 202° |
| 2026-05-01 08:26 | 51.48306 | -1.20152 | 13665 ft | 313 kts | 181° |
| 2026-05-01 08:26 | 51.46173 | -1.19711 | 14221 ft | 314 kts | 161° |
| 2026-05-01 08:27 | 51.44167 | -1.18311 | 14779 ft | 316 kts | 155° |
| 2026-05-01 08:27 | 51.42200 | -1.16854 | 15315 ft | 318 kts | 156° |
| 2026-05-01 08:27 | 51.40164 | -1.15354 | 15837 ft | 321 kts | 156° |
| 2026-05-01 08:27 | 51.38143 | -1.13871 | 16349 ft | 323 kts | 156° |
| 2026-05-01 08:28 | 51.36113 | -1.12381 | 16850 ft | 326 kts | 156° |
| 2026-05-01 08:28 | 51.34036 | -1.10858 | 17356 ft | 328 kts | 156° |
| 2026-05-01 08:28 | 51.31969 | -1.09342 | 17845 ft | 330 kts | 156° |
| 2026-05-01 08:28 | 51.29874 | -1.07807 | 18324 ft | 332 kts | 156° |
| 2026-05-01 08:29 | 51.27772 | -1.06270 | 18776 ft | 335 kts | 156° |
| 2026-05-01 08:29 | 51.25647 | -1.04717 | 19225 ft | 337 kts | 156° |
| 2026-05-01 08:29 | 51.23509 | -1.03158 | 19667 ft | 340 kts | 156° |
| 2026-05-01 08:29 | 51.21363 | -1.01595 | 20098 ft | 342 kts | 156° |
| 2026-05-01 08:30 | 51.19210 | -1.00028 | 20530 ft | 344 kts | 156° |
| 2026-05-01 08:30 | 51.17032 | -0.98444 | 20951 ft | 346 kts | 156° |
| 2026-05-01 08:30 | 51.14840 | -0.96851 | 21363 ft | 348 kts | 156° |
| 2026-05-01 08:30 | 51.12629 | -0.95244 | 21764 ft | 350 kts | 156° |
| 2026-05-01 08:31 | 51.10384 | -0.93616 | 22169 ft | 352 kts | 156° |
| 2026-05-01 08:31 | 51.08165 | -0.92006 | 22549 ft | 354 kts | 156° |
| 2026-05-01 08:31 | 51.05913 | -0.90375 | 22921 ft | 356 kts | 156° |
| 2026-05-01 08:31 | 51.03670 | -0.88751 | 23276 ft | 359 kts | 156° |
| 2026-05-01 08:32 | 51.01381 | -0.87097 | 23619 ft | 361 kts | 156° |
| 2026-05-01 08:32 | 50.99074 | -0.85433 | 23980 ft | 363 kts | 156° |
| 2026-05-01 08:32 | 50.96801 | -0.83795 | 24324 ft | 365 kts | 156° |
| 2026-05-01 08:32 | 50.94476 | -0.82120 | 24668 ft | 367 kts | 156° |
| 2026-05-01 08:33 | 50.92165 | -0.80458 | 24982 ft | 370 kts | 156° |
| 2026-05-01 08:33 | 50.89793 | -0.78754 | 25309 ft | 372 kts | 156° |
| 2026-05-01 08:33 | 50.87444 | -0.77036 | 25632 ft | 374 kts | 154° |
| 2026-05-01 08:33 | 50.85159 | -0.75148 | 25939 ft | 377 kts | 152° |
| 2026-05-01 08:34 | 50.82904 | -0.73019 | 26264 ft | 379 kts | 148° |
| 2026-05-01 08:34 | 50.80688 | -0.70760 | 26567 ft | 381 kts | 148° |
| 2026-05-01 08:34 | 50.78468 | -0.68505 | 26865 ft | 383 kts | 148° |
| 2026-05-01 08:34 | 50.76200 | -0.66203 | 27162 ft | 385 kts | 148° |
| 2026-05-01 08:35 | 50.73960 | -0.63931 | 27460 ft | 387 kts | 148° |
| 2026-05-01 08:35 | 50.71709 | -0.61648 | 27747 ft | 389 kts | 148° |
| 2026-05-01 08:35 | 50.69421 | -0.59331 | 28040 ft | 390 kts | 148° |
| 2026-05-01 08:35 | 50.67155 | -0.57036 | 28330 ft | 392 kts | 148° |
| 2026-05-01 08:36 | 50.64861 | -0.54715 | 28611 ft | 393 kts | 148° |
| 2026-05-01 08:36 | 50.62555 | -0.52388 | 28878 ft | 395 kts | 148° |
| 2026-05-01 08:36 | 50.60242 | -0.50055 | 29132 ft | 397 kts | 148° |
| 2026-05-01 08:36 | 50.57916 | -0.47710 | 29394 ft | 399 kts | 148° |
| 2026-05-01 08:37 | 50.55587 | -0.45366 | 29654 ft | 400 kts | 148° |
| 2026-05-01 08:37 | 50.53256 | -0.43023 | 29927 ft | 401 kts | 148° |
| 2026-05-01 08:37 | 50.50891 | -0.40648 | 30196 ft | 403 kts | 148° |
| 2026-05-01 08:37 | 50.48545 | -0.38294 | 30432 ft | 404 kts | 148° |
| 2026-05-01 08:38 | 50.46164 | -0.35909 | 30678 ft | 406 kts | 148° |
| 2026-05-01 08:38 | 50.43798 | -0.33541 | 30941 ft | 407 kts | 149° |
| 2026-05-01 08:38 | 50.41410 | -0.31156 | 31168 ft | 408 kts | 149° |
| 2026-05-01 08:38 | 50.39015 | -0.28764 | 31385 ft | 410 kts | 149° |
| 2026-05-01 08:39 | 50.36614 | -0.26370 | 31613 ft | 411 kts | 149° |
| 2026-05-01 08:39 | 50.34205 | -0.23971 | 31849 ft | 412 kts | 149° |
| 2026-05-01 08:39 | 50.31795 | -0.21573 | 32086 ft | 413 kts | 149° |
| 2026-05-01 08:39 | 50.29371 | -0.19163 | 32302 ft | 414 kts | 149° |
| 2026-05-01 08:40 | 50.24529 | -0.14358 | 32824 ft | 413 kts | 149° |
| 2026-05-01 08:40 | 50.22121 | -0.11974 | 33107 ft | 413 kts | 149° |
| 2026-05-01 08:40 | 50.19711 | -0.09593 | 33360 ft | 413 kts | 149° |
| 2026-05-01 08:41 | 50.17268 | -0.07181 | 33572 ft | 413 kts | 149° |
| 2026-05-01 08:41 | 50.14811 | -0.04900 | 33771 ft | 414 kts | 152° |
| 2026-05-01 08:41 | 50.12288 | -0.02837 | 33987 ft | 414 kts | 154° |
| 2026-05-01 08:41 | 50.09668 | -0.00965 | 34208 ft | 414 kts | 157° |
| 2026-05-01 08:42 | 50.06991 | 0.00681 | 34409 ft | 414 kts | 160° |
| 2026-05-01 08:42 | 50.04263 | 0.02098 | 34584 ft | 415 kts | 163° |
| 2026-05-01 08:42 | 50.01503 | 0.03279 | 34737 ft | 416 kts | 166° |
| 2026-05-01 08:42 | 49.98671 | 0.04388 | 34864 ft | 417 kts | 165° |
| 2026-05-01 08:43 | 49.95887 | 0.05496 | 34988 ft | 419 kts | 165° |
| 2026-05-01 08:43 | 49.93043 | 0.06626 | 35110 ft | 420 kts | 165° |
| 2026-05-01 08:43 | 49.87400 | 0.08855 | 35177 ft | 422 kts | 165° |
| 2026-05-01 08:44 | 49.81691 | 0.11097 | 35181 ft | 422 kts | 165° |
| 2026-05-01 08:44 | 49.76000 | 0.13327 | 35182 ft | 422 kts | 165° |
| 2026-05-01 08:45 | 49.70364 | 0.15526 | 35184 ft | 422 kts | 165° |
| 2026-05-01 08:45 | 49.64663 | 0.17782 | 35187 ft | 422 kts | 165° |
| 2026-05-01 08:46 | 49.59049 | 0.20049 | 35190 ft | 421 kts | 165° |
| 2026-05-01 08:46 | 49.53391 | 0.22328 | 35195 ft | 421 kts | 165° |
| 2026-05-01 08:47 | 49.47741 | 0.24598 | 35198 ft | 421 kts | 165° |
| 2026-05-01 08:47 | 49.42074 | 0.26868 | 35201 ft | 422 kts | 165° |
| 2026-05-01 08:48 | 49.36419 | 0.29128 | 35199 ft | 422 kts | 164° |
| 2026-05-01 08:48 | 49.30749 | 0.31389 | 35197 ft | 422 kts | 164° |
| 2026-05-01 08:49 | 49.25116 | 0.33747 | 35195 ft | 422 kts | 163° |
| 2026-05-01 08:49 | 49.19447 | 0.36145 | 35193 ft | 422 kts | 163° |
| 2026-05-01 08:50 | 49.13788 | 0.38528 | 35193 ft | 422 kts | 163° |
| 2026-05-01 08:50 | 49.08174 | 0.40885 | 35194 ft | 422 kts | 163° |
| 2026-05-01 08:51 | 49.02485 | 0.43264 | 35196 ft | 422 kts | 163° |
| 2026-05-01 08:51 | 48.96834 | 0.45624 | 35196 ft | 422 kts | 163° |
| 2026-05-01 08:52 | 48.91184 | 0.47977 | 35183 ft | 423 kts | 163° |
| 2026-05-01 08:52 | 48.85501 | 0.50342 | 35200 ft | 424 kts | 163° |
| 2026-05-01 08:53 | 48.79807 | 0.52702 | 35191 ft | 423 kts | 163° |
| 2026-05-01 08:53 | 48.74109 | 0.54974 | 35179 ft | 424 kts | 163° |
| 2026-05-01 08:54 | 48.68379 | 0.57205 | 35182 ft | 425 kts | 163° |
| 2026-05-01 08:54 | 48.62672 | 0.59434 | 35183 ft | 426 kts | 163° |
| 2026-05-01 08:55 | 48.56958 | 0.61667 | 35189 ft | 427 kts | 163° |
| 2026-05-01 08:55 | 48.51212 | 0.63912 | 35186 ft | 427 kts | 163° |
| 2026-05-01 08:56 | 48.45476 | 0.66241 | 35183 ft | 428 kts | 163° |
| 2026-05-01 08:56 | 48.39748 | 0.68578 | 35188 ft | 429 kts | 163° |
| 2026-05-01 08:57 | 48.33982 | 0.70920 | 35180 ft | 428 kts | 163° |
| 2026-05-01 08:57 | 48.28229 | 0.73248 | 35191 ft | 429 kts | 163° |
| 2026-05-01 08:58 | 48.22505 | 0.75542 | 35207 ft | 430 kts | 163° |
| 2026-05-01 08:58 | 48.16737 | 0.77803 | 35308 ft | 430 kts | 163° |
| 2026-05-01 08:59 | 48.10972 | 0.80064 | 35228 ft | 429 kts | 163° |
| 2026-05-01 08:59 | 48.05212 | 0.82322 | 35195 ft | 430 kts | 163° |
| 2026-05-01 09:00 | 47.99433 | 0.84583 | 35206 ft | 430 kts | 163° |
| 2026-05-01 09:00 | 47.93679 | 0.86834 | 35188 ft | 430 kts | 163° |
| 2026-05-01 09:01 | 47.87900 | 0.89086 | 35191 ft | 430 kts | 163° |
| 2026-05-01 09:01 | 47.82112 | 0.91335 | 35194 ft | 430 kts | 164° |
| 2026-05-01 09:02 | 47.76357 | 0.93558 | 35198 ft | 429 kts | 164° |
| 2026-05-01 09:02 | 47.70597 | 0.95787 | 35190 ft | 429 kts | 165° |
| 2026-05-01 09:03 | 47.64835 | 0.98012 | 35206 ft | 430 kts | 165° |
| 2026-05-01 09:03 | 47.59038 | 1.00244 | 35215 ft | 431 kts | 165° |
| 2026-05-01 09:04 | 47.53258 | 1.02462 | 35222 ft | 431 kts | 165° |
| 2026-05-01 09:04 | 47.47435 | 1.04576 | 35204 ft | 432 kts | 168° |
| 2026-05-01 09:05 | 47.41483 | 1.05885 | 35224 ft | 433 kts | 174° |
| 2026-05-01 09:05 | 47.35497 | 1.06245 | 35213 ft | 435 kts | 180° |
| 2026-05-01 09:06 | 47.29426 | 1.06095 | 35213 ft | 436 kts | 180° |
| 2026-05-01 09:06 | 47.23359 | 1.05962 | 35217 ft | 438 kts | 181° |
| 2026-05-01 09:07 | 47.17289 | 1.05825 | 35206 ft | 439 kts | 181° |
| 2026-05-01 09:07 | 47.11160 | 1.05683 | 35211 ft | 442 kts | 181° |
| 2026-05-01 09:08 | 47.05000 | 1.05543 | 35198 ft | 442 kts | 180° |
| 2026-05-01 09:08 | 46.98850 | 1.05352 | 35221 ft | 444 kts | 181° |
| 2026-05-01 09:09 | 46.92709 | 1.05075 | 35230 ft | 443 kts | 182° |
| 2026-05-01 09:09 | 46.86578 | 1.04805 | 35226 ft | 442 kts | 182° |
| 2026-05-01 09:10 | 46.80450 | 1.04543 | 35226 ft | 441 kts | 182° |
| 2026-05-01 09:10 | 46.74303 | 1.04281 | 35222 ft | 440 kts | 182° |
| 2026-05-01 09:11 | 46.68212 | 1.04025 | 35217 ft | 440 kts | 182° |
| 2026-05-01 09:11 | 46.62132 | 1.03768 | 35215 ft | 440 kts | 182° |
| 2026-05-01 09:12 | 46.55999 | 1.03618 | 35219 ft | 440 kts | 180° |
| 2026-05-01 09:12 | 46.49931 | 1.04268 | 35219 ft | 441 kts | 174° |
| 2026-05-01 09:13 | 46.43873 | 1.05895 | 35222 ft | 443 kts | 169° |
| 2026-05-01 09:13 | 46.37881 | 1.07909 | 35221 ft | 445 kts | 169° |
| 2026-05-01 09:14 | 46.31831 | 1.09925 | 35226 ft | 447 kts | 169° |
| 2026-05-01 09:14 | 46.25790 | 1.11932 | 35227 ft | 447 kts | 169° |
| 2026-05-01 09:15 | 46.19711 | 1.13951 | 35231 ft | 450 kts | 169° |
| 2026-05-01 09:15 | 46.13641 | 1.15961 | 35232 ft | 451 kts | 170° |
| 2026-05-01 09:16 | 46.07529 | 1.17979 | 35234 ft | 452 kts | 170° |
| 2026-05-01 09:17 | 45.98301 | 1.21019 | 35242 ft | 455 kts | 169° |
| 2026-05-01 09:17 | 45.89100 | 1.24041 | 35127 ft | 455 kts | 170° |
| 2026-05-01 09:18 | 45.79822 | 1.27077 | 35283 ft | 454 kts | 169° |
| 2026-05-01 09:19 | 45.70629 | 1.30076 | 35241 ft | 454 kts | 169° |
| 2026-05-01 09:20 | 45.61449 | 1.33065 | 35232 ft | 452 kts | 169° |
| 2026-05-01 09:21 | 45.49186 | 1.37038 | 35227 ft | 451 kts | 169° |
| 2026-05-01 09:21 | 45.40043 | 1.39980 | 35093 ft | 450 kts | 169° |
| 2026-05-01 09:22 | 45.33944 | 1.41936 | 35198 ft | 451 kts | 169° |
| 2026-05-01 09:22 | 45.27813 | 1.43901 | 35222 ft | 451 kts | 169° |
| 2026-05-01 09:23 | 45.24760 | 1.44879 | 35361 ft | 451 kts | 169° |
| 2026-05-01 09:23 | 45.18665 | 1.46828 | 35249 ft | 450 kts | 169° |
| 2026-05-01 09:24 | 45.09513 | 1.49748 | 35242 ft | 449 kts | 169° |
| 2026-05-01 09:25 | 44.97373 | 1.53606 | 35231 ft | 449 kts | 169° |
| 2026-05-01 09:26 | 44.88250 | 1.56496 | 35227 ft | 448 kts | 169° |
| 2026-05-01 09:26 | 44.79088 | 1.59386 | 35252 ft | 447 kts | 169° |
| 2026-05-01 09:27 | 44.69987 | 1.62248 | 35113 ft | 447 kts | 169° |
| 2026-05-01 09:28 | 44.63922 | 1.64151 | 35202 ft | 447 kts | 169° |
| 2026-05-01 09:28 | 44.57850 | 1.66053 | 35213 ft | 446 kts | 169° |
| 2026-05-01 09:29 | 44.48810 | 1.68878 | 35215 ft | 446 kts | 169° |
| 2026-05-01 09:29 | 44.45766 | 1.69826 | 35320 ft | 446 kts | 169° |
| 2026-05-01 09:30 | 44.39751 | 1.71700 | 35227 ft | 445 kts | 169° |
| 2026-05-01 09:30 | 44.30696 | 1.74506 | 35172 ft | 445 kts | 169° |
| 2026-05-01 09:31 | 44.24623 | 1.75950 | 35207 ft | 444 kts | 172° |
| 2026-05-01 09:32 | 44.15470 | 1.77978 | 35212 ft | 444 kts | 172° |
| 2026-05-01 09:32 | 44.06345 | 1.79994 | 35226 ft | 443 kts | 172° |
| 2026-05-01 09:33 | 44.00256 | 1.81336 | 35214 ft | 443 kts | 172° |
| 2026-05-01 09:34 | 43.91090 | 1.82813 | 35171 ft | 443 kts | 177° |
| 2026-05-01 09:34 | 43.81882 | 1.83708 | 35207 ft | 443 kts | 177° |
| 2026-05-01 09:35 | 43.72678 | 1.84602 | 35205 ft | 442 kts | 177° |
| 2026-05-01 09:36 | 43.66511 | 1.85199 | 35209 ft | 442 kts | 177° |
| 2026-05-01 09:36 | 43.60401 | 1.85790 | 35203 ft | 441 kts | 177° |
| 2026-05-01 09:37 | 43.54288 | 1.86380 | 35208 ft | 441 kts | 177° |
| 2026-05-01 09:37 | 43.45097 | 1.87265 | 35203 ft | 441 kts | 177° |
| 2026-05-01 09:38 | 43.35933 | 1.88145 | 35203 ft | 441 kts | 177° |
| 2026-05-01 09:39 | 43.26780 | 1.89014 | 35200 ft | 441 kts | 176° |
| 2026-05-01 09:39 | 43.20652 | 1.89599 | 35198 ft | 441 kts | 176° |
| 2026-05-01 09:40 | 43.11490 | 1.90472 | 35203 ft | 440 kts | 176° |
| 2026-05-01 09:41 | 43.05389 | 1.91052 | 35202 ft | 440 kts | 176° |
| 2026-05-01 09:41 | 42.96261 | 1.91917 | 35179 ft | 440 kts | 176° |
| 2026-05-01 09:42 | 42.93236 | 1.92204 | 34839 ft | 439 kts | 176° |
| 2026-05-01 09:42 | 42.90184 | 1.92494 | 34332 ft | 437 kts | 176° |
| 2026-05-01 09:42 | 42.84119 | 1.93074 | 32987 ft | 437 kts | 177° |
| 2026-05-01 09:43 | 42.78036 | 1.93652 | 31723 ft | 435 kts | 178° |
| 2026-05-01 09:43 | 42.75046 | 1.93935 | 31283 ft | 429 kts | 178° |
| 2026-05-01 09:43 | 42.72074 | 1.94213 | 30830 ft | 425 kts | 178° |
| 2026-05-01 09:44 | 42.66269 | 1.94883 | 29916 ft | 418 kts | 175° |
| 2026-05-01 09:44 | 42.63399 | 1.95449 | 29472 ft | 415 kts | 174° |
| 2026-05-01 09:44 | 42.60542 | 1.96024 | 29027 ft | 411 kts | 174° |
| 2026-05-01 09:45 | 42.57744 | 1.96588 | 28587 ft | 407 kts | 174° |
| 2026-05-01 09:45 | 42.52179 | 1.97712 | 27703 ft | 401 kts | 174° |
| 2026-05-01 09:45 | 42.49440 | 1.98264 | 27260 ft | 398 kts | 174° |
| 2026-05-01 09:46 | 42.46726 | 1.98812 | 26813 ft | 396 kts | 174° |
| 2026-05-01 09:46 | 42.43993 | 1.99362 | 26367 ft | 393 kts | 174° |
| 2026-05-01 09:46 | 42.41295 | 1.99906 | 25923 ft | 390 kts | 174° |
| 2026-05-01 09:46 | 42.38628 | 2.00441 | 25485 ft | 388 kts | 174° |
| 2026-05-01 09:47 | 42.35980 | 2.00910 | 25049 ft | 385 kts | 176° |
| 2026-05-01 09:47 | 42.33311 | 2.01235 | 24787 ft | 388 kts | 177° |
| 2026-05-01 09:47 | 42.30628 | 2.01560 | 24365 ft | 386 kts | 177° |
| 2026-05-01 09:47 | 42.27959 | 2.01884 | 23923 ft | 384 kts | 176° |
| 2026-05-01 09:48 | 42.25319 | 2.02204 | 23472 ft | 382 kts | 176° |
| 2026-05-01 09:48 | 42.22671 | 2.02526 | 23019 ft | 380 kts | 176° |
| 2026-05-01 09:48 | 42.20052 | 2.02826 | 22566 ft | 379 kts | 179° |
| 2026-05-01 09:48 | 42.17471 | 2.02459 | 22076 ft | 373 kts | 198° |
| 2026-05-01 09:49 | 42.15142 | 2.00987 | 21643 ft | 366 kts | 216° |
| 2026-05-01 09:49 | 42.13176 | 1.98880 | 21232 ft | 363 kts | 221° |
| 2026-05-01 09:49 | 42.11255 | 1.96718 | 20793 ft | 361 kts | 221° |
| 2026-05-01 09:49 | 42.09324 | 1.94546 | 20359 ft | 360 kts | 221° |
| 2026-05-01 09:50 | 42.07427 | 1.92422 | 19925 ft | 358 kts | 220° |
| 2026-05-01 09:50 | 42.05515 | 1.90291 | 19491 ft | 357 kts | 220° |
| 2026-05-01 09:50 | 42.03598 | 1.88162 | 19052 ft | 355 kts | 220° |
| 2026-05-01 09:50 | 42.01718 | 1.86079 | 18615 ft | 354 kts | 220° |
| 2026-05-01 09:51 | 41.99823 | 1.83984 | 18180 ft | 352 kts | 220° |
| 2026-05-01 09:51 | 41.97928 | 1.81891 | 17747 ft | 351 kts | 219° |
| 2026-05-01 09:51 | 41.96041 | 1.79812 | 17313 ft | 349 kts | 219° |
| 2026-05-01 09:51 | 41.94168 | 1.77750 | 16884 ft | 348 kts | 219° |
| 2026-05-01 09:52 | 41.92317 | 1.75713 | 16456 ft | 347 kts | 219° |
| 2026-05-01 09:52 | 41.90446 | 1.73655 | 16019 ft | 345 kts | 219° |
| 2026-05-01 09:52 | 41.88604 | 1.71630 | 15594 ft | 344 kts | 219° |
| 2026-05-01 09:52 | 41.86771 | 1.69617 | 15167 ft | 342 kts | 219° |
| 2026-05-01 09:53 | 41.84930 | 1.67596 | 14740 ft | 340 kts | 219° |
| 2026-05-01 09:53 | 41.83108 | 1.65597 | 14316 ft | 339 kts | 219° |
| 2026-05-01 09:53 | 41.81287 | 1.63602 | 13886 ft | 337 kts | 219° |
| 2026-05-01 09:53 | 41.79483 | 1.61626 | 13464 ft | 336 kts | 219° |
| 2026-05-01 09:54 | 41.77712 | 1.59689 | 13224 ft | 329 kts | 219° |
| 2026-05-01 09:54 | 41.75917 | 1.57726 | 13220 ft | 330 kts | 219° |
| 2026-05-01 09:54 | 41.74100 | 1.55879 | 12861 ft | 331 kts | 211° |
| 2026-05-01 09:54 | 41.72017 | 1.54608 | 12101 ft | 339 kts | 197° |
| 2026-05-01 09:55 | 41.69699 | 1.53913 | 11484 ft | 341 kts | 191° |
| 2026-05-01 09:55 | 41.67385 | 1.53346 | 10967 ft | 341 kts | 190° |
| 2026-05-01 09:55 | 41.65049 | 1.52782 | 10525 ft | 337 kts | 190° |
| 2026-05-01 09:55 | 41.62785 | 1.52223 | 10376 ft | 324 kts | 190° |
| 2026-05-01 09:56 | 41.60612 | 1.51678 | 10247 ft | 312 kts | 190° |
| 2026-05-01 09:56 | 41.58515 | 1.51146 | 9996 ft | 305 kts | 190° |
| 2026-05-01 09:56 | 41.56451 | 1.50623 | 9688 ft | 300 kts | 189° |
| 2026-05-01 09:56 | 41.54378 | 1.50373 | 9365 ft | 294 kts | 178° |
| 2026-05-01 09:57 | 41.52406 | 1.50641 | 9240 ft | 282 kts | 171° |
| 2026-05-01 09:57 | 41.50454 | 1.51077 | 9225 ft | 281 kts | 169° |
| 2026-05-01 09:57 | 41.48524 | 1.51529 | 9216 ft | 282 kts | 169° |
| 2026-05-01 09:57 | 41.46611 | 1.51973 | 9211 ft | 282 kts | 169° |
| 2026-05-01 09:58 | 41.44671 | 1.52416 | 9199 ft | 282 kts | 169° |
| 2026-05-01 09:58 | 41.42737 | 1.52855 | 8972 ft | 284 kts | 169° |
| 2026-05-01 09:58 | 41.40778 | 1.53295 | 8584 ft | 283 kts | 169° |
| 2026-05-01 09:58 | 41.38833 | 1.53731 | 8212 ft | 281 kts | 169° |
| 2026-05-01 09:59 | 41.36928 | 1.54187 | 7842 ft | 278 kts | 165° |
| 2026-05-01 09:59 | 41.35260 | 1.55377 | 7447 ft | 273 kts | 134° |
| 2026-05-01 09:59 | 41.34304 | 1.57500 | 7097 ft | 270 kts | 106° |
| 2026-05-01 09:59 | 41.34127 | 1.59978 | 6754 ft | 267 kts | 90° |
| 2026-05-01 10:00 | 41.34128 | 1.62434 | 6420 ft | 264 kts | 91° |
| 2026-05-01 10:00 | 41.34110 | 1.64848 | 6089 ft | 262 kts | 91° |
| 2026-05-01 10:00 | 41.34081 | 1.67266 | 5808 ft | 257 kts | 91° |
| 2026-05-01 10:00 | 41.34047 | 1.69566 | 5768 ft | 242 kts | 93° |
| 2026-05-01 10:01 | 41.33650 | 1.71634 | 5653 ft | 231 kts | 124° |
| 2026-05-01 10:01 | 41.32448 | 1.72986 | 5400 ft | 229 kts | 153° |
| 2026-05-01 10:01 | 41.31000 | 1.73831 | 5065 ft | 228 kts | 148° |
| 2026-05-01 10:01 | 41.29666 | 1.74937 | 4697 ft | 224 kts | 143° |
| 2026-05-01 10:02 | 41.28378 | 1.76078 | 4380 ft | 223 kts | 143° |
| 2026-05-01 10:02 | 41.27079 | 1.77187 | 4078 ft | 221 kts | 144° |
| 2026-05-01 10:02 | 41.25773 | 1.78261 | 3842 ft | 216 kts | 144° |
| 2026-05-01 10:02 | 41.24497 | 1.79289 | 3704 ft | 215 kts | 145° |
| 2026-05-01 10:03 | 41.23253 | 1.80279 | 3707 ft | 199 kts | 144° |
| 2026-05-01 10:03 | 41.22236 | 1.81339 | 3603 ft | 178 kts | 124° |
| 2026-05-01 10:03 | 41.21758 | 1.82725 | 3493 ft | 157 kts | 94° |
| 2026-05-01 10:03 | 41.21824 | 1.84087 | 3399 ft | 144 kts | 78° |
| 2026-05-01 10:04 | 41.22102 | 1.85377 | 3321 ft | 143 kts | 72° |
| 2026-05-01 10:04 | 41.22470 | 1.86602 | 3239 ft | 143 kts | 68° |
| 2026-05-01 10:04 | 41.22874 | 1.87809 | 3053 ft | 142 kts | 67° |
| 2026-05-01 10:04 | 41.23283 | 1.89007 | 2866 ft | 142 kts | 67° |
| 2026-05-01 10:05 | 41.23685 | 1.90190 | 2682 ft | 141 kts | 66° |
| 2026-05-01 10:05 | 41.24089 | 1.91379 | 2499 ft | 140 kts | 65° |
| 2026-05-01 10:05 | 41.24488 | 1.92544 | 2317 ft | 140 kts | 68° |
| 2026-05-01 10:05 | 41.24891 | 1.93738 | 2134 ft | 141 kts | 64° |
| 2026-05-01 10:06 | 41.25296 | 1.94923 | 1952 ft | 141 kts | 66° |
| 2026-05-01 10:06 | 41.25700 | 1.96107 | 1807 ft | 140 kts | 68° |
| 2026-05-01 10:06 | 41.26081 | 1.97240 | 1592 ft | 131 kts | 66° |
| 2026-05-01 10:06 | 41.26449 | 1.98339 | 1386 ft | 129 kts | 66° |
| 2026-05-01 10:07 | 41.26815 | 1.99431 | 1241 ft | 129 kts | 67° |
| 2026-05-01 10:07 | 41.27199 | 2.00499 | 1097 ft | 129 kts | 64° |
| 2026-05-01 10:07 | 41.27549 | 2.01598 | 894 ft | 129 kts | 68° |
| 2026-05-01 10:07 | 41.27918 | 2.02671 | 730 ft | 128 kts | 65° |
| 2026-05-01 10:08 | 41.28677 | 2.04829 | 424 ft | 129 kts | 64° |
| 2026-05-01 10:08 | 41.29046 | 2.05905 | 261 ft | 128 kts | 66° |
| 2026-05-01 10:08 | 41.29415 | 2.06997 | 95 ft | 128 kts | 66° |
| 2026-05-01 10:09 | 41.29776 | 2.08040 | 25 ft | 115 kts | 66° |
| 2026-05-01 10:09 | 41.30037 | 2.08806 | 25 ft | 67 kts | 66° |
| 2026-05-01 10:09 | 41.30171 | 2.09202 | 25 ft | 36 kts | 64° |
| 2026-05-01 10:09 | 41.30304 | 2.09443 | 25 ft | 24 kts | 40° |
| 2026-05-01 10:10 | 41.30394 | 2.09532 | 25 ft | 9 kts | 32° |
| 2026-05-01 10:10 | 41.30458 | 2.09525 | 25 ft | 10 kts | 335° |
| 2026-05-01 10:10 | 41.30479 | 2.09372 | 25 ft | 11 kts | 244° |
| 2026-05-01 10:11 | 41.30444 | 2.09271 | 25 ft | 13 kts | 245° |
| 2026-05-01 10:11 | 41.30400 | 2.09142 | 25 ft | 16 kts | 245° |
| 2026-05-01 10:11 | 41.30352 | 2.09001 | 25 ft | 17 kts | 245° |
| 2026-05-01 10:11 | 41.30302 | 2.08856 | 25 ft | 17 kts | 245° |
| 2026-05-01 10:12 | 41.30253 | 2.08711 | 25 ft | 17 kts | 245° |
| 2026-05-01 10:12 | 41.30219 | 2.08616 | 25 ft | 17 kts | 245° |
| 2026-05-01 10:12 | 41.30204 | 2.08485 | 25 ft | 3 kts | 343° |
| 2026-05-01 10:13 | 41.30229 | 2.08474 | 25 ft | 4 kts | 339° |
| 2026-05-01 10:13 | 41.30261 | 2.08456 | 25 ft | 5 kts | 336° |
| 2026-05-01 10:13 | 41.30300 | 2.08433 | 25 ft | 6 kts | 336° |
| 2026-05-01 10:14 | 41.30399 | 2.08368 | 25 ft | 7 kts | 310° |
| 2026-05-01 10:14 | 41.30407 | 2.08327 | 25 ft | 2 kts | 276° |
| 2026-05-01 10:14 | 41.30408 | 2.08314 | 25 ft | 0 kts | 275° |